createdAt,value
2022-11-21T00:01:22.409Z,14.40
2022-11-21T00:03:51.219Z,16.80
2022-11-21T00:06:19.774Z,10.90
2022-11-21T00:08:47.905Z,15.30
2022-11-21T00:11:17.023Z,13.50
2022-11-21T00:13:45.315Z,10.60
2022-11-21T00:16:15.729Z,14.40
2022-11-21T00:18:44.763Z,14.10
2022-11-21T00:21:17.716Z,12.60
2022-11-21T00:23:47.684Z,16.30
2022-11-21T00:26:16.794Z,13.50
2022-11-21T00:28:45.293Z,17.80
2022-11-21T00:31:24.139Z,15.10
2022-11-21T00:33:52.679Z,14.90
2022-11-21T00:36:20.677Z,15.90
2022-11-21T00:38:48.894Z,10.80
2022-11-21T00:41:17.023Z,14.50
2022-11-21T00:43:45.176Z,14.40
2022-11-21T00:46:13.192Z,10.10
2022-11-21T00:48:41.222Z,9.10
2022-11-21T00:51:09.347Z,11.80
2022-11-21T00:53:37.409Z,12.30
2022-11-21T00:56:05.646Z,11.40
2022-11-21T00:58:33.956Z,12.60
2022-11-21T01:01:04.397Z,10.10
2022-11-21T01:03:34.328Z,6.30
2022-11-21T01:06:11.672Z,11.20
2022-11-21T01:08:42.547Z,9.90
2022-11-21T01:11:13.734Z,9.80
2022-11-21T01:13:42.523Z,10.30
2022-11-21T01:16:13.412Z,8.80
2022-11-21T01:18:41.484Z,8.90
2022-11-21T01:21:19.051Z,9.40
2022-11-21T01:23:47.946Z,8.40
2022-11-21T01:26:21.659Z,9.20
2022-11-21T01:28:50.672Z,8.90
2022-11-21T01:31:21.899Z,9.40
2022-11-21T01:33:50.381Z,8.90
2022-11-21T01:36:26.757Z,8.80
2022-11-21T01:38:58.551Z,9.40
2022-11-21T01:41:31.569Z,8.90
2022-11-21T01:44:24.053Z,7.60
2022-11-21T01:46:53.137Z,9.10
2022-11-21T01:49:30.991Z,9.80
2022-11-21T01:52:04.980Z,8.60
2022-11-21T01:54:41.857Z,8.30
2022-11-21T01:57:30.322Z,5.50
2022-11-21T02:00:37.049Z,8.90
2022-11-21T02:03:12.552Z,7.50
2022-11-21T02:05:41.447Z,7.30
2022-11-21T02:08:15.414Z,6.90
2022-11-21T02:11:07.086Z,9.80
2022-11-21T02:13:35.099Z,7.00
2022-11-21T02:16:03.714Z,8.60
2022-11-21T02:18:31.838Z,8.20
2022-11-21T02:21:16.560Z,6.70
2022-11-21T02:23:50.271Z,8.20
2022-11-21T02:26:18.539Z,6.50
2022-11-21T02:28:46.921Z,6.20
2022-11-21T02:31:14.888Z,6.10
2022-11-21T02:33:43.019Z,6.80
2022-11-21T02:36:38.659Z,6.60
2022-11-21T02:39:32.531Z,3.50
2022-11-21T02:42:26.621Z,6.60
2022-11-21T02:45:20.362Z,8.70
2022-11-21T02:47:51.433Z,5.40
2022-11-21T02:50:25.927Z,6.10
2022-11-21T02:52:55.557Z,6.00
2022-11-21T02:55:27.219Z,5.90
2022-11-21T02:57:59.053Z,5.70
2022-11-21T03:00:29.714Z,5.30
2022-11-21T03:02:57.829Z,6.00
2022-11-21T03:05:26.057Z,5.90
2022-11-21T03:07:54.083Z,6.20
2022-11-21T03:10:22.813Z,5.60
2022-11-21T03:12:50.836Z,5.80
2022-11-21T03:15:19.256Z,6.60
2022-11-21T03:17:48.999Z,5.70
2022-11-21T03:20:17.158Z,3.30
2022-11-21T03:22:45.383Z,6.40
2022-11-21T03:25:13.504Z,5.50
2022-11-21T03:27:41.600Z,4.80
2022-11-21T03:30:10.472Z,6.00
2022-11-21T03:32:38.573Z,4.00
2022-11-21T03:35:07.140Z,3.60
2022-11-21T03:37:35.283Z,2.20
2022-11-21T03:40:04.134Z,4.50
2022-11-21T03:42:32.181Z,7.20
2022-11-21T03:45:00.453Z,3.80
2022-11-21T03:47:28.643Z,6.10
2022-11-21T03:49:56.872Z,4.10
2022-11-21T03:52:24.886Z,4.30
2022-11-21T03:54:53.112Z,1.60
2022-11-21T03:57:21.230Z,4.20
2022-11-21T03:59:49.381Z,6.00
2022-11-21T04:02:17.567Z,7.90
2022-11-21T04:04:45.660Z,3.00
2022-11-21T04:07:13.976Z,5.00
2022-11-21T04:09:42.082Z,4.10
2022-11-21T04:12:10.473Z,2.30
2022-11-21T04:14:38.449Z,4.30
2022-11-21T04:17:06.527Z,3.80
2022-11-21T04:19:34.658Z,2.70
2022-11-21T04:22:02.910Z,2.70
2022-11-21T04:24:31.133Z,3.80
2022-11-21T04:26:59.441Z,4.40
2022-11-21T04:29:27.557Z,4.30
2022-11-21T04:31:55.596Z,3.30
2022-11-21T04:34:23.915Z,2.60
2022-11-21T04:36:52.216Z,3.50
2022-11-21T04:39:20.337Z,3.90
2022-11-21T04:41:48.422Z,3.50
2022-11-21T04:44:16.616Z,5.80
2022-11-21T04:46:44.642Z,2.90
2022-11-21T04:49:12.683Z,3.10
2022-11-21T04:51:40.694Z,3.60
2022-11-21T04:54:08.966Z,4.00
2022-11-21T04:56:37.206Z,6.50
2022-11-21T04:59:05.222Z,10.30
2022-11-21T05:01:33.527Z,6.80
2022-11-21T05:04:01.673Z,5.40
2022-11-21T05:06:29.968Z,7.20
2022-11-21T05:08:57.940Z,4.90
2022-11-21T05:11:44.721Z,5.70
2022-11-21T05:14:12.824Z,6.20
2022-11-21T05:16:40.945Z,9.90
2022-11-21T05:19:09.996Z,9.90
2022-11-21T05:21:38.194Z,9.80
2022-11-21T05:24:06.647Z,9.70
2022-11-21T05:26:34.945Z,11.20
2022-11-21T05:29:02.936Z,9.20
2022-11-21T05:31:31.002Z,7.10
2022-11-21T05:33:59.031Z,3.70
2022-11-21T05:36:27.019Z,3.10
2022-11-21T05:38:55.439Z,1.60
2022-11-21T05:41:23.686Z,3.00
2022-11-21T05:43:51.939Z,3.90
2022-11-21T05:46:22.769Z,5.80
2022-11-21T05:48:52.221Z,4.90
2022-11-21T05:51:21.499Z,4.20
2022-11-21T05:53:49.726Z,4.60
2022-11-21T05:56:19.665Z,3.80
2022-11-21T05:58:48.003Z,4.20
2022-11-21T06:01:36.731Z,3.80
2022-11-21T06:04:05.050Z,2.50
2022-11-21T06:06:33.430Z,4.00
2022-11-21T06:09:02.364Z,5.20
2022-11-21T06:11:30.433Z,5.20
2022-11-21T06:13:58.538Z,4.10
2022-11-21T06:16:26.826Z,4.70
2022-11-21T06:18:58.728Z,7.30
2022-11-21T06:21:29.327Z,4.90
2022-11-21T06:23:59.091Z,3.70
2022-11-21T06:26:28.254Z,5.70
2022-11-21T06:28:56.353Z,4.00
2022-11-21T06:31:29.292Z,2.20
2022-11-21T06:33:59.327Z,1.10
2022-11-21T06:36:27.610Z,4.60
2022-11-21T06:38:56.794Z,2.50
2022-11-21T06:41:27.114Z,4.60
2022-11-21T06:43:55.306Z,2.60
2022-11-21T06:46:23.465Z,4.70
2022-11-21T06:48:51.462Z,2.50
2022-11-21T06:51:21.995Z,2.00
2022-11-21T06:53:58.566Z,5.10
2022-11-21T06:56:29.300Z,3.20
2022-11-21T06:58:59.008Z,4.60
2022-11-21T07:01:30.131Z,5.50
2022-11-21T07:03:59.279Z,4.30
2022-11-21T07:06:29.842Z,4.80
2022-11-21T07:09:30.822Z,5.50
2022-11-21T07:11:46.093Z,5.00
2022-11-21T07:14:14.405Z,3.70
2022-11-21T07:16:42.737Z,3.90
2022-11-21T07:19:10.842Z,6.90
2022-11-21T07:21:38.921Z,6.60
2022-11-21T07:24:07.364Z,7.30
2022-11-21T07:26:35.446Z,8.60
2022-11-21T07:29:03.674Z,6.30
2022-11-21T07:31:31.887Z,9.10
2022-11-21T07:34:00.351Z,7.30
2022-11-21T07:36:32.340Z,8.00
2022-11-21T07:39:01.126Z,7.20
2022-11-21T07:41:29.525Z,4.50
2022-11-21T07:43:57.953Z,9.40
2022-11-21T07:46:26.548Z,9.60
2022-11-21T07:48:57.382Z,9.60
2022-11-21T07:51:28.955Z,9.50
2022-11-21T07:53:57.243Z,9.30
2022-11-21T07:56:26.766Z,6.30
2022-11-21T07:58:54.922Z,7.40
2022-11-21T08:01:23.243Z,7.30
2022-11-21T08:03:51.723Z,13.20
2022-11-21T08:06:19.757Z,17.50
2022-11-21T08:08:49.786Z,16.60
2022-11-21T08:11:17.752Z,13.70
2022-11-21T08:13:46.072Z,13.70
2022-11-21T08:16:14.135Z,7.10
2022-11-21T08:18:42.562Z,6.90
2022-11-21T08:21:12.044Z,6.30
2022-11-21T08:23:41.720Z,9.20
2022-11-21T08:26:10.624Z,4.70
2022-11-21T08:28:38.584Z,2.80
2022-11-21T08:31:07.054Z,6.10
2022-11-21T08:33:35.380Z,5.40
2022-11-21T08:36:05.536Z,7.30
2022-11-21T08:38:34.013Z,7.40
2022-11-21T08:41:21.071Z,7.10
2022-11-21T08:43:49.123Z,10.60
2022-11-21T08:46:18.243Z,8.80
2022-11-21T08:48:46.444Z,19.90
2022-11-21T08:51:14.663Z,12.60
2022-11-21T08:53:42.884Z,12.30
2022-11-21T08:56:10.997Z,5.50
2022-11-21T08:58:39.009Z,8.70
2022-11-21T09:01:09.930Z,6.00
2022-11-21T09:03:38.042Z,13.10
2022-11-21T09:06:07.560Z,7.50
2022-11-21T09:08:35.796Z,7.90
2022-11-21T09:11:05.736Z,7.50
2022-11-21T09:13:36.949Z,7.70
2022-11-21T09:16:24.311Z,7.70
2022-11-21T09:18:53.261Z,6.20
2022-11-21T09:21:22.217Z,15.00
2022-11-21T09:23:50.301Z,9.40
2022-11-21T09:26:18.488Z,5.80
2022-11-21T09:28:47.036Z,11.70
2022-11-21T09:31:15.505Z,10.10
2022-11-21T09:33:43.861Z,7.50
2022-11-21T09:36:11.892Z,9.20
2022-11-21T09:38:40.049Z,10.10
2022-11-21T09:41:49.318Z,4.70
2022-11-21T09:45:14.886Z,7.50
2022-11-21T09:47:50.809Z,7.50
2022-11-21T09:50:28.687Z,5.20
2022-11-21T09:53:42.206Z,8.10
2022-11-21T09:56:16.881Z,6.20
2022-11-21T09:58:51.966Z,7.20
2022-11-21T10:01:20.233Z,6.20
2022-11-21T10:03:50.758Z,7.20
2022-11-21T10:06:21.931Z,7.10
2022-11-21T10:09:15.141Z,8.80
2022-11-21T10:12:10.920Z,7.40
2022-11-21T10:15:05.140Z,7.90
2022-11-21T10:17:57.900Z,9.10
2022-11-21T10:21:10.820Z,8.10
2022-11-21T10:23:46.497Z,8.10
2022-11-21T10:26:22.858Z,8.20
2022-11-21T10:28:53.116Z,10.20
2022-11-21T10:31:23.103Z,6.30
2022-11-21T10:33:53.405Z,5.40
2022-11-21T10:36:28.627Z,7.70
2022-11-21T10:39:13.722Z,7.20
2022-11-21T10:41:59.107Z,5.60
2022-11-21T10:44:49.645Z,4.90
2022-11-21T10:47:27.977Z,5.10
2022-11-21T10:50:11.969Z,5.10
2022-11-21T10:52:49.508Z,6.90
2022-11-21T10:55:18.547Z,7.00
2022-11-21T10:57:51.706Z,9.90
2022-11-21T11:00:22.870Z,6.50
2022-11-21T11:03:04.897Z,9.70
2022-11-21T11:05:41.650Z,5.60
2022-11-21T11:08:12.420Z,10.70
2022-11-21T11:10:46.355Z,7.50
2022-11-21T11:13:50.967Z,3.80
2022-11-21T11:16:22.661Z,9.80
2022-11-21T11:18:59.130Z,5.10
2022-11-21T11:21:30.830Z,5.40
2022-11-21T11:24:10.158Z,6.00
2022-11-21T11:26:48.606Z,13.70
2022-11-21T11:29:31.299Z,12.60
2022-11-21T11:31:59.548Z,6.30
2022-11-21T11:34:39.410Z,7.90
2022-11-21T11:37:12.162Z,8.50
2022-11-21T11:42:40.537Z,7.00
2022-11-21T11:45:43.997Z,6.00
2022-11-21T11:48:12.140Z,7.40
2022-11-21T11:50:47.107Z,6.30
2022-11-21T11:53:26.909Z,12.10
2022-11-21T11:56:00.545Z,8.30
2022-11-21T11:58:44.041Z,6.90
2022-11-21T12:01:16.016Z,6.90
2022-11-21T12:03:58.312Z,9.50
2022-11-21T12:07:18.023Z,6.40
2022-11-21T12:09:27.064Z,9.20
2022-11-21T12:12:36.668Z,8.10
2022-11-21T12:15:47.169Z,5.70
2022-11-21T12:18:15.434Z,6.00
2022-11-21T12:20:56.420Z,6.00
2022-11-21T12:23:29.050Z,5.10
2022-11-21T12:26:35.729Z,6.20
2022-11-21T12:29:39.377Z,6.90
2022-11-21T12:32:41.469Z,8.70
2022-11-21T12:35:28.602Z,19.20
2022-11-21T12:38:15.073Z,5.40
2022-11-21T12:40:56.516Z,6.00
2022-11-21T12:43:53.120Z,6.40
2022-11-21T12:46:32.245Z,11.50
2022-11-21T12:49:46.944Z,8.10
2022-11-21T12:52:44.578Z,5.30
2022-11-21T12:55:23.683Z,34.00
2022-11-21T12:58:13.441Z,6.30
2022-11-21T13:01:00.478Z,6.50
2022-11-21T13:03:59.769Z,12.90
2022-11-21T13:06:36.472Z,8.30
2022-11-21T13:09:12.509Z,12.10
2022-11-21T13:12:00.488Z,7.60
2022-11-21T13:14:36.625Z,10.10
2022-11-21T13:17:13.818Z,12.70
2022-11-21T13:20:18.791Z,19.70
2022-11-21T13:22:47.253Z,25.70
2022-11-21T13:25:40.583Z,7.70
2022-11-21T13:28:11.967Z,11.30
2022-11-21T13:31:29.457Z,13.30
2022-11-21T13:34:00.956Z,30.30
2022-11-21T13:36:30.407Z,11.00
2022-11-21T13:38:58.628Z,17.10
2022-11-21T13:41:54.811Z,31.60
2022-11-21T13:44:32.314Z,36.00
2022-11-21T13:47:11.334Z,8.70
2022-11-21T13:50:09.287Z,8.60
2022-11-21T13:53:01.824Z,14.90
2022-11-21T13:55:47.976Z,17.80
2022-11-21T13:58:47.639Z,15.50
2022-11-21T14:01:24.978Z,11.60
2022-11-21T14:04:00.106Z,12.70
2022-11-21T14:06:33.166Z,13.30
2022-11-21T14:09:05.261Z,11.30
2022-11-21T14:11:48.534Z,12.80
2022-11-21T14:14:34.389Z,12.30
2022-11-21T14:17:27.926Z,12.70
2022-11-21T14:19:59.011Z,13.40
2022-11-21T14:22:45.997Z,12.70
2022-11-21T14:25:18.826Z,10.80
2022-11-21T14:27:50.836Z,15.30
2022-11-21T14:30:39.666Z,16.50
2022-11-21T14:33:24.337Z,15.00
2022-11-21T14:36:24.071Z,16.40
2022-11-21T14:39:20.980Z,16.30
2022-11-21T14:41:50.041Z,16.80
2022-11-21T14:44:20.062Z,18.60
2022-11-21T14:46:49.246Z,20.50
2022-11-21T14:49:20.222Z,21.10
2022-11-21T14:52:17.929Z,20.80
2022-11-21T14:57:44.988Z,46.80
2022-11-21T15:03:20.737Z,11.60
2022-11-21T15:06:07.008Z,27.40
2022-11-21T15:11:38.993Z,20.20
2022-11-21T15:14:20.071Z,16.80
2022-11-21T15:16:51.683Z,14.80
2022-11-21T15:19:25.926Z,10.60
2022-11-21T15:21:59.050Z,13.80
2022-11-21T15:24:43.879Z,15.60
2022-11-21T15:27:26.824Z,10.40
2022-11-21T15:30:07.155Z,10.80
2022-11-21T15:33:15.158Z,15.90
2022-11-21T15:35:45.230Z,11.50
2022-11-21T15:38:28.310Z,12.70
2022-11-21T15:41:09.684Z,9.00
2022-11-21T15:43:49.990Z,12.10
2022-11-21T15:46:20.514Z,17.10
2022-11-21T15:49:31.505Z,16.20
2022-11-21T15:52:13.338Z,17.30
2022-11-21T15:54:41.693Z,20.30
2022-11-21T15:57:10.078Z,18.80
2022-11-21T15:59:38.609Z,19.00
2022-11-21T16:02:06.812Z,18.00
2022-11-21T16:04:34.909Z,23.30
2022-11-21T16:07:03.131Z,20.80
2022-11-21T16:09:31.798Z,21.10
2022-11-21T16:11:59.848Z,31.80
2022-11-21T16:14:27.850Z,22.00
2022-11-21T16:16:56.090Z,15.10
2022-11-21T16:19:24.286Z,14.90
2022-11-21T16:21:53.555Z,19.50
2022-11-21T16:24:21.847Z,22.70
2022-11-21T16:26:53.511Z,16.50
2022-11-21T16:29:21.850Z,15.20
2022-11-21T16:31:51.224Z,22.00
2022-11-21T16:34:20.136Z,21.60
2022-11-21T16:36:48.684Z,22.40
2022-11-21T16:39:18.635Z,31.20
2022-11-21T16:41:48.122Z,18.30
2022-11-21T16:44:17.142Z,21.10
2022-11-21T16:46:48.309Z,25.50
2022-11-21T16:49:16.448Z,26.20
2022-11-21T16:51:44.763Z,25.80
2022-11-21T16:54:19.421Z,18.60
2022-11-21T16:56:47.419Z,26.60
2022-11-21T16:59:15.654Z,28.00
2022-11-21T17:01:43.921Z,18.70
2022-11-21T17:04:16.991Z,31.60
2022-11-21T17:06:47.261Z,25.20
2022-11-21T17:09:18.330Z,16.10
2022-11-21T17:11:46.352Z,25.90
2022-11-21T17:14:14.469Z,19.80
2022-11-21T17:16:42.521Z,29.00
2022-11-21T17:19:14.356Z,26.10
2022-11-21T17:21:44.831Z,26.70
2022-11-21T17:24:13.953Z,28.50
2022-11-21T17:26:42.009Z,37.40
2022-11-21T17:29:10.161Z,30.90
2022-11-21T17:31:38.180Z,28.50
2022-11-21T17:34:06.165Z,182.10
2022-11-21T17:36:34.700Z,76.40
2022-11-21T17:39:03.351Z,58.70
2022-11-21T17:41:31.438Z,50.10
2022-11-21T17:44:01.163Z,65.90
2022-11-21T17:46:29.485Z,43.30
2022-11-21T17:48:59.228Z,37.30
2022-11-21T17:51:33.127Z,47.40
2022-11-21T17:54:03.165Z,37.10
2022-11-21T17:56:34.406Z,49.10
2022-11-21T17:59:03.163Z,54.50
2022-11-21T18:01:31.934Z,43.60
2022-11-21T18:04:03.254Z,32.50
2022-11-21T18:06:39.590Z,35.90
2022-11-21T18:09:10.799Z,35.20
2022-11-21T18:11:40.783Z,25.10
2022-11-21T18:14:11.226Z,35.30
2022-11-21T18:16:40.167Z,35.50
2022-11-21T18:19:13.695Z,42.60
2022-11-21T18:21:42.365Z,277.70
2022-11-21T18:24:10.574Z,116.10
2022-11-21T18:26:39.574Z,77.10
2022-11-21T18:29:35.210Z,55.80
2022-11-21T18:31:58.597Z,34.50
2022-11-21T18:34:26.554Z,46.50
2022-11-21T18:36:54.793Z,53.50
2022-11-21T18:39:25.131Z,64.10
2022-11-21T18:41:53.769Z,56.50
2022-11-21T18:44:22.833Z,44.80
2022-11-21T18:46:51.325Z,29.80
2022-11-21T18:49:19.572Z,38.60
2022-11-21T18:51:48.508Z,34.50
2022-11-21T18:54:17.287Z,21.30
2022-11-21T18:56:45.393Z,37.00
2022-11-21T18:59:13.732Z,20.50
2022-11-21T19:01:42.147Z,22.60
2022-11-21T19:04:10.521Z,39.00
2022-11-21T19:06:38.574Z,29.80
2022-11-21T19:09:08.336Z,40.40
2022-11-21T19:11:36.644Z,33.70
2022-11-21T19:14:04.784Z,50.00
2022-11-21T19:16:34.583Z,34.60
2022-11-21T19:24:23.937Z,24.20
2022-11-21T19:26:51.962Z,25.20
2022-11-21T19:29:20.251Z,30.50
2022-11-21T19:31:48.267Z,28.90
2022-11-21T19:34:17.119Z,17.70
2022-11-21T19:36:46.803Z,21.40
2022-11-21T19:39:17.347Z,26.50
2022-11-21T19:41:48.931Z,32.00
2022-11-21T19:44:17.012Z,14.80
2022-11-21T19:46:45.087Z,27.50
2022-11-21T19:49:13.244Z,33.70
2022-11-21T19:51:42.323Z,25.40
2022-11-21T19:54:16.936Z,20.20
2022-11-21T19:56:45.047Z,19.20
2022-11-21T19:59:13.780Z,14.60
2022-11-21T20:01:42.884Z,18.60
2022-11-21T20:04:12.417Z,22.30
2022-11-21T20:06:42.464Z,23.80
2022-11-21T20:09:13.213Z,16.00
2022-11-21T20:11:42.993Z,25.90
2022-11-21T20:14:19.518Z,23.20
2022-11-21T20:16:51.404Z,21.50
2022-11-21T20:19:22.526Z,26.60
2022-11-21T20:21:51.270Z,21.80
2022-11-21T20:24:19.616Z,27.30
2022-11-21T20:26:47.779Z,36.60
2022-11-21T20:29:16.438Z,31.60
2022-11-21T20:31:44.661Z,32.40
2022-11-21T20:34:13.681Z,26.20
2022-11-21T20:36:43.454Z,22.10
2022-11-21T20:39:17.115Z,17.30
2022-11-21T20:41:46.486Z,29.00
2022-11-21T20:47:09.591Z,59.50
2022-11-21T20:49:38.243Z,61.10
2022-11-21T20:54:54.688Z,55.50
2022-11-21T20:57:22.768Z,39.60
2022-11-21T20:59:51.028Z,45.40
2022-11-21T21:02:19.129Z,36.90
2022-11-21T21:04:47.338Z,49.40
2022-11-21T21:07:15.545Z,52.30
2022-11-21T21:09:43.696Z,43.60
2022-11-21T21:12:11.779Z,45.20
2022-11-21T21:14:40.214Z,47.40
2022-11-21T21:17:08.439Z,47.90
2022-11-21T21:19:36.667Z,44.70
2022-11-21T21:22:05.136Z,44.90
2022-11-21T21:24:33.415Z,47.20
2022-11-21T21:27:01.371Z,46.80
2022-11-21T21:29:30.072Z,41.70
2022-11-21T21:31:58.530Z,43.80
2022-11-21T21:34:26.637Z,38.10
2022-11-21T21:36:54.965Z,44.20
2022-11-21T21:39:22.989Z,48.50
2022-11-21T21:41:50.997Z,58.00
2022-11-21T21:44:19.933Z,52.60
2022-11-21T21:46:48.273Z,50.20
2022-11-21T21:49:16.521Z,51.20
2022-11-21T21:51:44.625Z,51.90
2022-11-21T21:54:18.527Z,42.00
2022-11-21T21:56:47.689Z,42.10
2022-11-21T21:59:15.874Z,30.60
2022-11-21T22:01:44.172Z,30.00
2022-11-21T22:04:13.521Z,30.20
2022-11-21T22:06:41.724Z,26.20
2022-11-21T22:09:09.905Z,24.50
2022-11-21T22:11:39.407Z,43.90
2022-11-21T22:14:11.963Z,42.00
2022-11-21T22:19:09.391Z,29.90
2022-11-21T22:21:38.413Z,37.60
2022-11-21T22:24:30.868Z,44.00
2022-11-21T22:26:59.278Z,38.10
2022-11-21T22:29:27.450Z,48.80
2022-11-21T22:31:55.883Z,31.80
2022-11-21T22:34:24.011Z,30.30
2022-11-21T22:36:52.089Z,33.60
2022-11-21T22:39:20.397Z,18.50
2022-11-21T22:41:48.510Z,31.70
2022-11-21T22:44:16.624Z,22.40
2022-11-21T22:46:44.801Z,22.80
2022-11-21T22:49:12.847Z,26.90
2022-11-21T22:51:40.910Z,33.00
2022-11-21T22:54:09.201Z,34.10
2022-11-21T22:56:37.270Z,26.00
2022-11-21T22:59:05.801Z,43.70
2022-11-21T23:01:34.896Z,39.70
2022-11-21T23:04:03.340Z,26.40
2022-11-21T23:06:31.595Z,33.90
2022-11-21T23:08:59.722Z,41.60
2022-11-21T23:11:36.312Z,47.90
2022-11-21T23:14:08.002Z,45.00
2022-11-21T23:16:36.328Z,37.40
2022-11-21T23:19:04.515Z,35.40
2022-11-21T23:21:32.729Z,23.70
2022-11-21T23:24:00.922Z,33.40
2022-11-21T23:26:28.982Z,40.30
2022-11-21T23:28:57.158Z,40.20
2022-11-21T23:31:25.337Z,32.00
2022-11-21T23:33:53.556Z,36.70
2022-11-21T23:36:21.536Z,37.80
2022-11-21T23:38:49.563Z,27.70
2022-11-21T23:41:17.616Z,42.20
2022-11-21T23:43:45.739Z,37.60
2022-11-21T23:46:13.704Z,36.10
2022-11-21T23:48:41.731Z,26.60
2022-11-21T23:51:09.766Z,19.80
2022-11-21T23:53:38.422Z,28.30
2022-11-21T23:56:06.491Z,42.10
2022-11-21T23:58:35.048Z,19.80
